createdAt,value
2022-10-08T00:02:20.752Z,17.30
2022-10-08T00:05:29.344Z,19.50
2022-10-08T00:08:05.473Z,15.30
2022-10-08T00:10:37.050Z,16.20
2022-10-08T00:13:08.061Z,15.40
2022-10-08T00:16:00.481Z,13.70
2022-10-08T00:18:29.840Z,16.60
2022-10-08T00:21:14.455Z,13.40
2022-10-08T00:23:48.185Z,14.70
2022-10-08T00:26:23.653Z,14.30
2022-10-08T00:28:55.106Z,15.80
2022-10-08T00:31:28.558Z,14.60
2022-10-08T00:34:02.130Z,17.30
2022-10-08T00:40:28.912Z,15.60
2022-10-08T00:43:04.840Z,14.40
2022-10-08T00:45:44.257Z,14.80
2022-10-08T00:48:25.790Z,15.30
2022-10-08T00:51:07.250Z,13.10
2022-10-08T00:53:48.116Z,17.40
2022-10-08T00:56:20.018Z,17.90
2022-10-08T00:58:54.338Z,12.40
2022-10-08T01:01:27.841Z,14.70
2022-10-08T01:04:05.411Z,16.10
2022-10-08T01:06:44.524Z,15.90
2022-10-08T01:09:19.742Z,14.30
2022-10-08T01:11:53.843Z,14.40
2022-10-08T01:14:41.300Z,15.30
2022-10-08T01:17:18.268Z,13.20
2022-10-08T01:20:12.811Z,16.80
2022-10-08T01:23:07.806Z,19.30
2022-10-08T01:25:55.474Z,14.30
2022-10-08T01:28:44.974Z,18.50
2022-10-08T01:31:39.211Z,14.40
2022-10-08T01:34:18.684Z,19.10
2022-10-08T01:36:55.142Z,17.10
2022-10-08T01:40:01.836Z,21.70
2022-10-08T01:42:39.873Z,16.90
2022-10-08T01:45:16.861Z,15.10
2022-10-08T01:47:50.939Z,13.60
2022-10-08T01:50:27.164Z,18.10
2022-10-08T01:53:02.294Z,17.10
2022-10-08T01:55:40.073Z,15.00
2022-10-08T01:58:19.193Z,18.30
2022-10-08T02:01:07.845Z,17.20
2022-10-08T02:04:00.954Z,16.50
2022-10-08T02:06:36.706Z,17.50
2022-10-08T02:09:29.360Z,16.00
2022-10-08T02:12:02.512Z,14.00
2022-10-08T02:14:36.999Z,15.30
2022-10-08T02:17:26.738Z,15.80
2022-10-08T02:20:03.440Z,13.90
2022-10-08T02:22:38.102Z,16.80
2022-10-08T02:25:15.338Z,17.30
2022-10-08T02:27:57.601Z,17.10
2022-10-08T02:30:53.376Z,15.80
2022-10-08T02:33:32.133Z,13.10
2022-10-08T02:36:08.714Z,16.10
2022-10-08T02:38:49.194Z,16.40
2022-10-08T02:41:37.694Z,18.00
2022-10-08T02:44:16.338Z,15.80
2022-10-08T02:46:50.553Z,13.00
2022-10-08T02:49:23.851Z,17.90
2022-10-08T02:51:55.579Z,19.40
2022-10-08T02:54:24.969Z,14.70
2022-10-08T02:57:01.614Z,16.30
2022-10-08T02:59:32.988Z,17.20
2022-10-08T03:02:04.820Z,16.70
2022-10-08T03:04:39.605Z,14.50
2022-10-08T03:07:10.006Z,18.50
2022-10-08T03:09:43.207Z,14.80
2022-10-08T03:12:14.243Z,17.10
2022-10-08T03:14:47.979Z,13.70
2022-10-08T03:17:22.230Z,24.60
2022-10-08T03:19:54.430Z,17.30
2022-10-08T03:22:25.168Z,17.70
2022-10-08T03:24:56.791Z,16.80
2022-10-08T03:27:27.922Z,17.10
2022-10-08T03:29:57.803Z,16.80
2022-10-08T03:32:28.535Z,14.70
2022-10-08T03:34:58.231Z,18.60
2022-10-08T03:37:27.457Z,16.50
2022-10-08T03:39:57.140Z,17.20
2022-10-08T03:42:27.116Z,16.20
2022-10-08T03:44:56.704Z,15.00
2022-10-08T03:47:26.382Z,17.20
2022-10-08T03:49:55.677Z,16.20
2022-10-08T03:52:25.488Z,18.00
2022-10-08T03:54:55.098Z,13.20
2022-10-08T03:57:24.758Z,13.10
2022-10-08T03:59:54.704Z,16.20
2022-10-08T04:02:24.587Z,12.90
2022-10-08T04:04:55.088Z,15.40
2022-10-08T04:07:24.788Z,18.80
2022-10-08T04:09:54.154Z,18.80
2022-10-08T04:12:24.288Z,16.50
2022-10-08T04:14:53.774Z,18.90
2022-10-08T04:17:23.140Z,16.00
2022-10-08T04:19:53.733Z,15.20
2022-10-08T04:22:23.277Z,18.60
2022-10-08T04:37:56.823Z,14.20
2022-10-08T04:40:26.328Z,17.40
2022-10-08T04:42:56.392Z,13.70
2022-10-08T04:45:26.185Z,16.90
2022-10-08T04:47:55.614Z,16.20
2022-10-08T04:50:24.949Z,18.70
2022-10-08T04:52:54.070Z,13.20
2022-10-08T04:55:24.465Z,16.70
2022-10-08T04:57:54.060Z,15.60
2022-10-08T05:00:23.488Z,18.20
2022-10-08T05:02:53.403Z,17.70
2022-10-08T05:05:40.178Z,13.70
2022-10-08T05:08:10.305Z,16.90
2022-10-08T05:10:47.705Z,19.00
2022-10-08T05:13:17.046Z,17.80
2022-10-08T05:15:46.519Z,19.00
2022-10-08T05:18:15.909Z,16.30
2022-10-08T05:20:45.385Z,18.70
2022-10-08T05:33:19.421Z,17.40
2022-10-08T05:35:49.497Z,18.80
2022-10-08T05:38:19.909Z,18.10
2022-10-08T05:40:50.351Z,14.20
2022-10-08T05:43:20.685Z,16.30
2022-10-08T05:45:53.554Z,18.70
2022-10-08T05:48:23.337Z,19.90
2022-10-08T05:50:53.712Z,16.20
2022-10-08T05:53:23.647Z,15.20
2022-10-08T05:56:02.003Z,15.00
2022-10-08T05:58:32.191Z,16.00
2022-10-08T06:01:04.828Z,19.40
2022-10-08T06:03:35.785Z,17.40
2022-10-08T06:06:07.716Z,17.60
2022-10-08T06:08:39.383Z,17.40
2022-10-08T06:11:13.091Z,19.00
2022-10-08T06:13:44.016Z,15.60
2022-10-08T06:16:14.811Z,15.20
2022-10-08T06:18:45.574Z,17.90
2022-10-08T06:55:06.480Z,15.90
2022-10-08T06:57:36.471Z,15.90
2022-10-08T07:00:08.045Z,15.30
2022-10-08T07:02:37.606Z,16.80
2022-10-08T07:05:09.397Z,16.00
2022-10-08T07:07:39.150Z,18.40
2022-10-08T07:10:09.967Z,15.00
2022-10-08T07:12:41.577Z,12.00
2022-10-08T07:15:19.767Z,17.30
2022-10-08T07:17:55.211Z,14.00
2022-10-08T07:40:37.918Z,16.80
2022-10-08T07:43:06.758Z,16.40
2022-10-08T07:45:35.368Z,13.70
2022-10-08T07:48:06.060Z,12.50
2022-10-08T07:50:34.329Z,13.10
2022-10-08T07:53:04.197Z,11.90
2022-10-08T07:55:35.036Z,13.90
2022-10-08T07:58:03.816Z,14.00
2022-10-08T08:00:32.172Z,12.00
2022-10-08T08:03:03.779Z,14.10
2022-10-08T08:05:34.760Z,14.60
2022-10-08T08:08:04.408Z,14.70
2022-10-08T08:10:33.612Z,11.30
2022-10-08T08:13:02.666Z,11.10
2022-10-08T08:15:30.980Z,12.70
2022-10-08T08:17:59.153Z,12.20
2022-10-08T08:20:27.844Z,11.00
2022-10-08T08:22:56.197Z,12.00
2022-10-08T08:25:24.411Z,18.00
2022-10-08T08:27:52.664Z,16.80
2022-10-08T08:30:20.899Z,18.10
2022-10-08T08:32:49.659Z,15.40
2022-10-08T08:35:18.323Z,10.40
2022-10-08T08:37:47.167Z,13.20
2022-10-08T08:40:15.600Z,15.90
2022-10-08T08:42:50.897Z,14.40
2022-10-08T08:45:45.300Z,17.20
2022-10-08T08:48:19.346Z,14.50
2022-10-08T08:50:53.494Z,14.90
2022-10-08T08:53:22.927Z,11.50
2022-10-08T08:55:55.426Z,13.10
2022-10-08T08:58:36.857Z,16.10
2022-10-08T09:01:17.102Z,14.10
2022-10-08T09:03:52.097Z,15.10
2022-10-08T09:06:25.565Z,11.20
2022-10-08T09:08:59.257Z,11.40
2022-10-08T09:11:30.150Z,18.70
2022-10-08T09:14:06.179Z,12.80
2022-10-08T09:16:36.553Z,12.20
2022-10-08T09:19:05.127Z,14.90
2022-10-08T09:21:34.682Z,13.00
2022-10-08T09:24:03.059Z,9.60
2022-10-08T09:26:33.220Z,14.70
2022-10-08T09:29:04.321Z,12.10
2022-10-08T09:31:41.880Z,12.50
2022-10-08T09:34:18.309Z,13.60
2022-10-08T09:36:49.522Z,14.90
2022-10-08T09:39:20.812Z,10.80
2022-10-08T09:42:12.781Z,13.50
2022-10-08T09:44:43.406Z,10.70
2022-10-08T09:47:14.856Z,19.00
2022-10-08T09:49:44.591Z,27.00
2022-10-08T09:52:19.324Z,13.50
2022-10-08T09:54:50.216Z,12.70
2022-10-08T09:57:20.912Z,13.50
2022-10-08T09:59:52.946Z,13.20
2022-10-08T10:02:30.566Z,11.60
2022-10-08T10:05:01.046Z,10.50
2022-10-08T10:07:41.676Z,15.50
2022-10-08T10:10:18.224Z,13.00
2022-10-08T10:12:50.915Z,14.50
2022-10-08T10:15:23.290Z,10.60
2022-10-08T10:17:54.428Z,13.00
2022-10-08T10:20:28.947Z,9.40
2022-10-08T10:23:02.827Z,10.50
2022-10-08T10:25:38.577Z,11.90
2022-10-08T10:28:14.398Z,15.60
2022-10-08T10:30:51.725Z,10.10
2022-10-08T10:33:25.160Z,9.20
2022-10-08T10:35:56.307Z,14.30
2022-10-08T10:38:29.863Z,11.30
2022-10-08T10:41:14.490Z,11.30
2022-10-08T10:43:50.059Z,13.40
2022-10-08T10:46:31.137Z,12.10
2022-10-08T10:49:00.585Z,10.80
2022-10-08T10:51:55.789Z,10.60
2022-10-08T10:54:48.848Z,15.60
2022-10-08T10:57:30.862Z,13.90
2022-10-08T11:00:06.610Z,14.50
2022-10-08T11:02:43.617Z,13.40
2022-10-08T11:05:21.934Z,20.60
2022-10-08T11:08:10.872Z,11.30
2022-10-08T11:10:53.991Z,12.60
2022-10-08T11:13:38.486Z,12.40
2022-10-08T11:16:17.604Z,13.10
2022-10-08T11:18:50.229Z,19.10
2022-10-08T11:21:35.567Z,11.70
2022-10-08T11:24:22.313Z,10.90
2022-10-08T11:26:58.785Z,13.40
2022-10-08T11:29:34.152Z,12.70
2022-10-08T11:32:03.965Z,11.60
2022-10-08T11:34:35.863Z,13.00
2022-10-08T11:37:13.350Z,13.50
2022-10-08T11:39:50.920Z,10.70
2022-10-08T11:42:29.073Z,17.30
2022-10-08T11:45:14.704Z,15.40
2022-10-08T11:47:52.501Z,16.80
2022-10-08T11:50:32.474Z,16.30
2022-10-08T11:53:19.711Z,13.40
2022-10-08T11:55:53.964Z,13.70
2022-10-08T11:58:27.340Z,15.70
2022-10-08T12:01:03.756Z,13.50
2022-10-08T12:03:34.549Z,14.70
2022-10-08T12:06:18.343Z,13.30
2022-10-08T12:08:52.658Z,16.50
2022-10-08T12:11:54.765Z,14.40
2022-10-08T12:14:32.453Z,13.80
2022-10-08T12:17:12.686Z,14.30
2022-10-08T12:20:00.611Z,14.00
2022-10-08T12:22:59.082Z,14.30
2022-10-08T12:25:40.609Z,17.80
2022-10-08T12:28:49.978Z,15.80
2022-10-08T12:34:03.285Z,14.40
2022-10-08T12:36:50.233Z,15.20
2022-10-08T12:39:34.974Z,12.90
2022-10-08T12:42:15.540Z,16.30
2022-10-08T12:45:06.532Z,13.60
2022-10-08T12:47:47.334Z,12.20
2022-10-08T13:22:40.464Z,13.20
2022-10-08T13:25:31.402Z,16.90
2022-10-08T13:28:13.766Z,11.70
2022-10-08T13:30:45.823Z,12.20
2022-10-08T13:33:18.849Z,12.90
2022-10-08T13:35:53.629Z,14.00
2022-10-08T13:38:25.116Z,12.20
2022-10-08T13:40:58.435Z,16.50
2022-10-08T13:43:31.127Z,15.50
2022-10-08T13:45:59.720Z,12.10
2022-10-08T13:48:28.485Z,13.70
2022-10-08T13:50:57.185Z,13.60
2022-10-08T13:53:26.602Z,17.90
2022-10-08T13:55:55.439Z,12.40
2022-10-08T13:58:24.275Z,13.00
2022-10-08T14:00:54.213Z,15.10
2022-10-08T14:03:23.405Z,15.40
2022-10-08T14:05:52.377Z,16.60
2022-10-08T14:08:26.260Z,19.80
2022-10-08T14:10:57.495Z,14.50
2022-10-08T14:13:28.811Z,11.30
2022-10-08T14:15:57.483Z,13.30
2022-10-08T14:18:26.255Z,13.70
2022-10-08T14:20:55.553Z,12.40
2022-10-08T14:23:27.147Z,14.10
2022-10-08T14:25:55.411Z,14.60
2022-10-08T14:28:24.008Z,12.20
2022-10-08T14:30:52.245Z,9.50
2022-10-08T14:33:20.501Z,12.50
2022-10-08T14:35:53.398Z,12.00
2022-10-08T14:38:21.877Z,14.10
2022-10-08T14:40:51.543Z,12.00
2022-10-08T14:43:21.391Z,16.60
2022-10-08T14:45:51.502Z,17.60
2022-10-08T14:48:19.824Z,12.40
2022-10-08T14:50:48.092Z,13.60
2022-10-08T14:53:16.460Z,17.00
2022-10-08T14:56:07.884Z,14.40
2022-10-08T14:58:34.519Z,11.30
2022-10-08T15:01:02.729Z,15.00
2022-10-08T15:03:30.910Z,15.00
2022-10-08T15:06:01.387Z,11.30
2022-10-08T15:08:29.699Z,13.70
2022-10-08T15:11:00.643Z,16.10
2022-10-08T15:13:29.445Z,15.10
2022-10-08T15:15:58.521Z,13.80
2022-10-08T15:18:30.767Z,13.20
2022-10-08T15:21:00.493Z,14.00
2022-10-08T15:23:29.062Z,12.70
2022-10-08T15:26:01.925Z,13.30
2022-10-08T15:28:30.866Z,15.20
2022-10-08T15:31:04.012Z,15.10
2022-10-08T15:33:36.118Z,13.70
2022-10-08T15:36:05.267Z,16.70
2022-10-08T15:38:33.904Z,18.00
2022-10-08T15:41:03.052Z,13.60
2022-10-08T15:43:34.039Z,13.90
2022-10-08T15:46:10.142Z,17.30
2022-10-08T15:48:38.520Z,15.10
2022-10-08T15:51:07.776Z,15.50
2022-10-08T15:53:36.844Z,13.40
2022-10-08T15:56:06.070Z,15.70
2022-10-08T15:58:49.810Z,15.60
2022-10-08T16:01:21.811Z,20.20
2022-10-08T16:03:52.531Z,17.00
2022-10-08T16:06:23.658Z,13.90
2022-10-08T16:08:52.058Z,16.60
2022-10-08T16:11:23.110Z,17.30
2022-10-08T16:13:53.697Z,19.50
2022-10-08T16:16:22.851Z,15.40
2022-10-08T16:18:58.025Z,20.50
2022-10-08T16:21:27.973Z,19.20
2022-10-08T16:23:57.579Z,21.70
2022-10-08T16:26:28.532Z,16.00
2022-10-08T16:28:58.942Z,18.70
2022-10-08T16:31:29.478Z,19.40
2022-10-08T16:33:59.556Z,21.90
2022-10-08T16:36:29.162Z,19.00
2022-10-08T16:38:58.417Z,30.50
2022-10-08T16:41:28.380Z,22.70
2022-10-08T16:43:58.158Z,22.10
2022-10-08T16:46:28.725Z,21.30
2022-10-08T16:48:59.046Z,17.50
2022-10-08T16:51:29.566Z,17.10
2022-10-08T16:53:59.603Z,18.80
2022-10-08T16:56:30.393Z,15.20
2022-10-08T16:59:01.106Z,21.20
2022-10-08T17:01:30.092Z,20.90
2022-10-08T17:04:00.838Z,18.80
2022-10-08T17:06:29.195Z,18.60
2022-10-08T17:08:57.935Z,20.60
2022-10-08T17:11:26.324Z,20.50
2022-10-08T17:13:56.382Z,18.70
2022-10-08T17:16:26.950Z,24.10
2022-10-08T17:18:57.434Z,25.40
2022-10-08T17:21:26.722Z,22.50
2022-10-08T17:23:57.308Z,20.80
2022-10-08T17:26:27.709Z,21.20
2022-10-08T17:28:56.597Z,19.40
2022-10-08T17:31:26.667Z,22.50
2022-10-08T17:33:55.248Z,17.90
2022-10-08T17:36:26.186Z,22.10
2022-10-08T17:38:58.181Z,25.30
2022-10-08T17:41:28.897Z,22.30
2022-10-08T17:43:59.238Z,32.30
2022-10-08T17:46:29.294Z,24.70
2022-10-08T17:48:58.462Z,25.30
2022-10-08T17:51:28.423Z,26.70
2022-10-08T17:53:58.626Z,26.00
2022-10-08T17:56:27.475Z,27.00
2022-10-08T17:58:55.964Z,23.80
2022-10-08T18:01:25.656Z,28.70
2022-10-08T18:03:55.379Z,23.30
2022-10-08T18:06:25.312Z,25.80
2022-10-08T18:08:55.878Z,27.40
2022-10-08T18:11:25.135Z,26.60
2022-10-08T18:13:53.919Z,23.50
2022-10-08T18:16:25.155Z,24.20
2022-10-08T18:18:53.655Z,21.00
2022-10-08T18:21:22.181Z,19.80
2022-10-08T18:23:50.869Z,22.70
2022-10-08T18:26:22.316Z,18.20
2022-10-08T18:28:53.457Z,19.00
2022-10-08T18:31:23.763Z,17.50
2022-10-08T18:33:57.376Z,18.30
2022-10-08T18:36:27.099Z,15.30
2022-10-08T18:38:57.417Z,17.80
2022-10-08T18:41:28.332Z,16.40
2022-10-08T18:43:58.585Z,20.30
2022-10-08T18:46:28.269Z,19.90
2022-10-08T18:48:56.766Z,17.40
2022-10-08T18:51:26.785Z,16.00
2022-10-08T18:53:57.008Z,17.00
2022-10-08T18:56:28.359Z,19.20
2022-10-08T18:58:58.273Z,21.40
2022-10-08T19:01:29.579Z,19.40
2022-10-08T19:03:59.613Z,20.40
2022-10-08T19:06:30.059Z,18.60
2022-10-08T19:09:02.592Z,19.60
2022-10-08T19:11:33.436Z,16.90
2022-10-08T19:14:02.640Z,18.10
2022-10-08T19:16:37.799Z,20.00
2022-10-08T19:19:18.540Z,19.30
2022-10-08T19:21:47.783Z,23.80
2022-10-08T19:24:18.721Z,21.90
2022-10-08T19:26:48.018Z,20.90
2022-10-08T19:29:19.383Z,20.60
2022-10-08T19:31:49.453Z,21.10
2022-10-08T19:34:20.679Z,21.40
2022-10-08T19:36:49.389Z,19.00
2022-10-08T19:39:19.813Z,18.40
2022-10-08T19:41:48.912Z,20.80
2022-10-08T19:44:17.708Z,18.60
2022-10-08T19:46:46.294Z,21.10
2022-10-08T19:49:15.170Z,18.80
2022-10-08T19:51:43.984Z,18.90
2022-10-08T19:54:13.901Z,19.90
2022-10-08T19:56:43.163Z,22.60
2022-10-08T19:59:13.298Z,18.80
2022-10-08T20:01:45.283Z,19.60
2022-10-08T20:04:16.446Z,15.40
2022-10-08T20:06:45.198Z,19.80
2022-10-08T20:09:15.062Z,20.60
2022-10-08T20:11:46.369Z,20.40
2022-10-08T20:14:16.087Z,17.80
2022-10-08T20:16:48.125Z,21.90
2022-10-08T20:19:19.594Z,21.50
2022-10-08T20:21:50.381Z,20.40
2022-10-08T20:24:21.385Z,20.80
2022-10-08T20:26:50.804Z,20.20
2022-10-08T20:29:21.969Z,22.90
2022-10-08T20:31:54.686Z,24.10
2022-10-08T20:34:28.063Z,23.50
2022-10-08T20:36:57.521Z,25.90
2022-10-08T20:39:25.770Z,23.40
2022-10-08T20:41:54.453Z,22.70
2022-10-08T20:44:22.943Z,20.80
2022-10-08T20:46:52.494Z,22.80
2022-10-08T20:49:20.831Z,19.80
2022-10-08T20:51:51.660Z,21.50
2022-10-08T20:54:19.780Z,22.90
2022-10-08T20:56:48.043Z,20.60
2022-10-08T20:59:18.439Z,22.10
2022-10-08T21:01:48.857Z,16.00
2022-10-08T21:04:17.448Z,20.30
2022-10-08T21:06:47.841Z,20.60
2022-10-08T21:09:17.917Z,20.70
2022-10-08T21:11:46.685Z,15.60
2022-10-08T21:14:19.269Z,15.70
2022-10-08T21:16:48.267Z,16.10
2022-10-08T21:19:20.989Z,20.20
2022-10-08T21:21:49.662Z,14.70
2022-10-08T21:24:18.355Z,14.50
2022-10-08T21:26:46.973Z,15.40
2022-10-08T21:29:16.601Z,17.00
2022-10-08T21:31:45.555Z,14.90
2022-10-08T21:34:16.874Z,21.20
2022-10-08T21:36:45.779Z,17.60
2022-10-08T21:39:17.849Z,19.10
2022-10-08T21:41:47.142Z,14.10
2022-10-08T21:44:16.259Z,16.80
2022-10-08T21:46:46.053Z,17.90
2022-10-08T21:49:19.460Z,20.60
2022-10-08T21:51:48.912Z,14.10
2022-10-08T21:54:18.050Z,16.10
2022-10-08T21:56:46.892Z,21.40
2022-10-08T21:59:18.046Z,18.70
2022-10-08T22:01:49.102Z,13.70
2022-10-08T22:04:23.445Z,14.60
2022-10-08T22:06:57.617Z,16.90
2022-10-08T22:09:27.740Z,14.30
2022-10-08T22:11:58.104Z,23.20
2022-10-08T22:14:26.550Z,15.60
2022-10-08T22:16:54.942Z,16.20
2022-10-08T22:19:23.854Z,12.00
2022-10-08T22:21:52.410Z,11.40
2022-10-08T22:24:20.939Z,7.70
2022-10-08T22:26:49.439Z,11.70
2022-10-08T22:29:17.747Z,10.00
2022-10-08T22:31:46.412Z,7.50
2022-10-08T22:34:15.387Z,10.30
2022-10-08T22:36:44.630Z,13.30
2022-10-08T22:39:13.227Z,9.70
2022-10-08T22:41:42.537Z,8.20
2022-10-08T22:44:10.892Z,8.00
2022-10-08T22:46:40.197Z,5.20
2022-10-08T22:49:10.528Z,7.90
2022-10-08T22:51:39.616Z,11.80
2022-10-08T22:54:10.068Z,7.80
2022-10-08T22:56:38.865Z,8.20
2022-10-08T22:59:08.065Z,7.90
2022-10-08T23:01:36.748Z,7.60
2022-10-08T23:04:05.614Z,7.00
2022-10-08T23:06:34.517Z,6.60
2022-10-08T23:09:05.192Z,10.60
2022-10-08T23:11:34.682Z,8.10
2022-10-08T23:14:03.920Z,9.70
2022-10-08T23:16:34.694Z,11.50
2022-10-08T23:19:05.235Z,10.10
2022-10-08T23:21:33.961Z,6.60
2022-10-08T23:24:02.826Z,8.50
2022-10-08T23:26:31.156Z,6.90
2022-10-08T23:29:00.479Z,8.10
2022-10-08T23:31:31.032Z,11.20
2022-10-08T23:33:59.885Z,6.60
2022-10-08T23:36:31.529Z,6.50
2022-10-08T23:39:00.343Z,7.90
2022-10-08T23:41:28.824Z,11.20
2022-10-08T23:43:57.775Z,9.50
2022-10-08T23:46:28.323Z,9.40
2022-10-08T23:48:58.380Z,9.00
2022-10-08T23:51:27.959Z,10.00
2022-10-08T23:53:56.299Z,11.90
2022-10-08T23:56:24.819Z,5.40
2022-10-08T23:58:53.007Z,8.90
